createdAt,value
2022-12-08T00:00:27.200Z,9.05
2022-12-08T00:02:54.060Z,9.27
2022-12-08T00:05:39.947Z,8.85
2022-12-08T00:08:29.653Z,10.52
2022-12-08T00:10:56.402Z,8.70
2022-12-08T00:13:23.199Z,9.10
2022-12-08T00:15:49.873Z,10.25
2022-12-08T00:18:16.791Z,9.85
2022-12-08T00:20:43.552Z,11.05
2022-12-08T00:23:10.216Z,9.85
2022-12-08T00:25:37.448Z,10.63
2022-12-08T00:28:04.358Z,11.48
2022-12-08T00:30:31.073Z,10.75
2022-12-08T00:32:57.815Z,10.13
2022-12-08T00:35:24.766Z,10.18
2022-12-08T00:37:57.517Z,11.18
2022-12-08T00:40:27.910Z,10.75
2022-12-08T00:42:56.122Z,11.00
2022-12-08T00:45:24.027Z,11.27
2022-12-08T00:47:50.720Z,11.00
2022-12-08T00:50:17.493Z,11.45
2022-12-08T00:52:44.235Z,11.38
2022-12-08T00:55:11.010Z,11.50
2022-12-08T00:57:37.749Z,11.82
2022-12-08T01:00:05.552Z,12.48
2022-12-08T01:02:34.428Z,12.30
2022-12-08T01:05:01.138Z,12.75
2022-12-08T01:07:29.629Z,12.35
2022-12-08T01:09:57.750Z,13.23
2022-12-08T01:12:24.664Z,12.45
2022-12-08T01:14:51.453Z,13.70
2022-12-08T01:17:18.276Z,13.55
2022-12-08T01:19:45.040Z,12.02
2022-12-08T01:22:11.829Z,12.90
2022-12-08T01:24:38.894Z,12.35
2022-12-08T01:27:05.659Z,12.73
2022-12-08T01:29:32.444Z,13.10
2022-12-08T01:31:59.101Z,13.13
2022-12-08T01:34:25.828Z,11.75
2022-12-08T01:36:52.602Z,12.27
2022-12-08T01:39:20.172Z,12.55
2022-12-08T01:41:47.959Z,11.52
2022-12-08T01:44:14.676Z,11.32
2022-12-08T01:46:43.732Z,11.68
2022-12-08T01:49:33.136Z,10.77
2022-12-08T01:52:13.559Z,11.52
2022-12-08T01:54:48.877Z,11.00
2022-12-08T01:57:25.042Z,11.85
2022-12-08T01:59:57.808Z,11.85
2022-12-08T02:02:29.635Z,11.85
2022-12-08T02:04:56.539Z,12.38
2022-12-08T02:07:24.397Z,12.27
2022-12-08T02:09:53.255Z,12.65
2022-12-08T02:12:19.996Z,11.85
2022-12-08T02:15:07.165Z,12.68
2022-12-08T02:18:17.329Z,12.27
2022-12-08T02:20:47.139Z,14.05
2022-12-08T02:23:55.451Z,13.88
2022-12-08T02:26:27.795Z,13.63
2022-12-08T02:29:32.004Z,13.07
2022-12-08T02:35:03.022Z,14.38
2022-12-08T02:37:37.260Z,14.80
2022-12-08T02:40:31.060Z,13.90
2022-12-08T02:43:19.430Z,14.60
2022-12-08T02:45:55.792Z,15.00
2022-12-08T02:48:22.616Z,14.30
2022-12-08T02:50:49.355Z,15.15
2022-12-08T02:55:44.489Z,14.93
2022-12-08T02:58:35.513Z,15.95
2022-12-08T03:01:20.288Z,15.18
2022-12-08T03:04:15.218Z,16.08
2022-12-08T03:06:59.686Z,16.13
2022-12-08T03:09:38.430Z,16.85
2022-12-08T03:12:19.161Z,16.80
2022-12-08T03:14:50.440Z,16.40
2022-12-08T03:17:19.875Z,17.38
2022-12-08T03:19:48.214Z,17.38
2022-12-08T03:22:18.689Z,17.65
2022-12-08T03:24:47.615Z,17.40
2022-12-08T03:27:23.653Z,15.80
2022-12-08T03:29:54.616Z,17.40
2022-12-08T03:32:49.723Z,16.45
2022-12-08T03:35:21.260Z,17.13
2022-12-08T03:37:48.088Z,17.48
2022-12-08T03:40:19.434Z,17.23
2022-12-08T03:42:46.347Z,17.60
2022-12-08T03:45:13.199Z,17.02
2022-12-08T03:47:39.965Z,16.83
2022-12-08T03:50:07.508Z,17.70
2022-12-08T03:52:34.333Z,17.63
2022-12-08T03:55:01.045Z,17.30
2022-12-08T03:57:27.786Z,18.58
2022-12-08T03:59:54.519Z,17.65
2022-12-08T04:02:21.447Z,17.35
2022-12-08T04:04:48.759Z,17.35
2022-12-08T04:07:15.499Z,18.50
2022-12-08T04:09:42.382Z,18.23
2022-12-08T04:12:09.551Z,17.83
2022-12-08T04:14:36.425Z,19.38
2022-12-08T04:17:03.373Z,19.17
2022-12-08T04:19:30.238Z,17.20
2022-12-08T04:21:57.000Z,18.20
2022-12-08T04:24:23.799Z,19.65
2022-12-08T04:26:50.727Z,19.00
2022-12-08T04:29:17.809Z,18.40
2022-12-08T04:31:44.665Z,18.45
2022-12-08T04:34:11.505Z,19.23
2022-12-08T04:36:38.367Z,18.33
2022-12-08T04:39:05.223Z,17.60
2022-12-08T04:41:32.156Z,19.30
2022-12-08T04:43:58.896Z,18.17
2022-12-08T04:46:25.629Z,19.10
2022-12-08T04:48:52.626Z,17.83
2022-12-08T04:51:20.814Z,18.42
2022-12-08T04:53:48.334Z,19.08
2022-12-08T04:56:16.679Z,18.00
2022-12-08T04:58:43.638Z,17.50
2022-12-08T05:01:11.103Z,17.42
2022-12-08T05:03:38.055Z,18.58
2022-12-08T05:06:05.760Z,18.83
2022-12-08T05:08:33.593Z,18.55
2022-12-08T05:11:08.394Z,19.08
2022-12-08T05:13:35.259Z,17.95
2022-12-08T05:16:20.217Z,18.65
2022-12-08T05:18:46.978Z,17.90
2022-12-08T05:21:13.879Z,19.73
2022-12-08T05:23:40.879Z,18.35
2022-12-08T05:26:07.716Z,18.92
2022-12-08T05:28:43.651Z,19.45
2022-12-08T05:31:14.730Z,19.17
2022-12-08T05:33:41.977Z,17.90
2022-12-08T05:36:09.899Z,18.40
2022-12-08T05:38:36.780Z,17.98
2022-12-08T05:41:04.050Z,19.88
2022-12-08T05:43:30.843Z,19.52
2022-12-08T05:45:57.737Z,17.45
2022-12-08T05:48:24.497Z,19.33
2022-12-08T05:50:51.722Z,18.42
2022-12-08T05:53:20.401Z,17.65
2022-12-08T05:55:48.152Z,18.25
2022-12-08T05:58:17.621Z,19.02
2022-12-08T06:00:44.864Z,19.98
2022-12-08T06:03:12.972Z,19.90
2022-12-08T06:05:42.104Z,19.35
2022-12-08T06:08:09.249Z,19.65
2022-12-08T06:10:37.657Z,20.65
2022-12-08T06:13:04.447Z,19.83
2022-12-08T06:15:31.258Z,20.15
2022-12-08T06:17:58.408Z,19.98
2022-12-08T06:20:25.098Z,21.08
2022-12-08T06:22:51.874Z,19.35
2022-12-08T06:25:18.645Z,19.92
2022-12-08T06:27:45.488Z,19.33
2022-12-08T06:30:12.630Z,20.48
2022-12-08T06:32:40.424Z,19.80
2022-12-08T06:35:07.723Z,21.27
2022-12-08T06:37:34.653Z,19.48
2022-12-08T06:40:01.660Z,21.83
2022-12-08T06:42:45.348Z,20.20
2022-12-08T06:45:13.682Z,20.40
2022-12-08T06:47:40.380Z,19.15
2022-12-08T06:50:09.440Z,19.92
2022-12-08T06:52:45.668Z,20.55
2022-12-08T06:55:35.551Z,22.77
2022-12-08T06:58:00.979Z,20.75
2022-12-08T07:00:27.786Z,20.50
2022-12-08T07:02:54.569Z,21.02
2022-12-08T07:05:21.513Z,19.70
2022-12-08T07:07:48.228Z,20.23
2022-12-08T07:10:15.277Z,20.42
2022-12-08T07:12:42.005Z,19.33
2022-12-08T07:15:09.448Z,19.73
2022-12-08T07:17:36.234Z,20.15
2022-12-08T07:20:04.069Z,20.33
2022-12-08T07:22:31.105Z,19.77
2022-12-08T07:24:57.795Z,18.70
2022-12-08T07:27:24.590Z,19.85
2022-12-08T07:29:51.318Z,19.50
2022-12-08T07:32:18.163Z,19.67
2022-12-08T07:34:47.104Z,20.05
2022-12-08T07:37:14.113Z,18.58
2022-12-08T07:39:40.903Z,20.38
2022-12-08T07:42:07.598Z,20.27
2022-12-08T07:44:34.316Z,20.15
2022-12-08T07:47:01.104Z,19.83
2022-12-08T07:49:27.893Z,19.50
2022-12-08T07:51:54.766Z,21.05
2022-12-08T07:54:21.583Z,18.60
2022-12-08T07:56:48.400Z,18.90
2022-12-08T07:59:15.304Z,18.73
2022-12-08T08:01:45.326Z,18.77
2022-12-08T08:04:12.586Z,19.60
2022-12-08T08:06:39.544Z,19.38
2022-12-08T08:09:07.293Z,21.10
2022-12-08T08:11:34.237Z,20.05
2022-12-08T08:14:04.273Z,20.20
2022-12-08T08:16:36.682Z,21.35
2022-12-08T08:19:05.398Z,19.05
2022-12-08T08:21:47.409Z,20.67
2022-12-08T08:24:14.227Z,21.40
2022-12-08T08:26:43.349Z,19.48
2022-12-08T08:29:10.152Z,19.33
2022-12-08T08:31:37.004Z,20.85
2022-12-08T08:34:06.676Z,19.90
2022-12-08T08:36:33.860Z,19.83
2022-12-08T08:39:00.742Z,21.58
2022-12-08T08:41:27.458Z,19.92
2022-12-08T08:43:55.372Z,20.65
2022-12-08T08:46:22.467Z,22.25
2022-12-08T08:48:49.343Z,21.15
2022-12-08T08:51:16.383Z,19.90
2022-12-08T08:53:46.890Z,21.17
2022-12-08T08:56:15.855Z,20.80
2022-12-08T08:58:43.240Z,20.30
2022-12-08T09:01:19.929Z,20.40
2022-12-08T09:03:47.144Z,19.42
2022-12-08T09:06:14.931Z,20.83
2022-12-08T09:08:43.013Z,20.92
2022-12-08T09:11:10.496Z,21.13
2022-12-08T09:13:37.621Z,21.27
2022-12-08T09:16:06.932Z,22.55
2022-12-08T09:18:34.417Z,21.20
2022-12-08T09:21:10.007Z,21.88
2022-12-08T09:23:37.164Z,21.35
2022-12-08T09:26:05.218Z,21.67
2022-12-08T09:28:32.664Z,21.08
2022-12-08T09:30:59.513Z,22.15
2022-12-08T09:33:26.382Z,20.23
2022-12-08T09:35:53.269Z,19.98
2022-12-08T09:38:19.983Z,21.90
2022-12-08T09:40:52.052Z,22.52
2022-12-08T09:43:18.735Z,27.42
2022-12-08T09:45:47.757Z,22.08
2022-12-08T09:48:23.492Z,21.60
2022-12-08T09:50:57.486Z,21.20
2022-12-08T09:53:58.874Z,21.65
2022-12-08T09:56:30.853Z,20.30
2022-12-08T09:59:08.196Z,21.15
2022-12-08T10:01:39.842Z,19.20
2022-12-08T10:04:34.530Z,19.65
2022-12-08T10:07:26.944Z,20.20
2022-12-08T10:09:54.009Z,20.05
2022-12-08T10:12:57.347Z,18.65
2022-12-08T10:16:04.685Z,17.30
2022-12-08T10:18:34.151Z,19.42
2022-12-08T10:21:18.864Z,19.20
2022-12-08T10:23:51.727Z,19.13
2022-12-08T10:26:20.869Z,20.05
2022-12-08T10:28:48.537Z,20.00
2022-12-08T10:31:16.879Z,19.70
2022-12-08T10:33:44.938Z,19.38
2022-12-08T10:36:12.406Z,18.85
2022-12-08T10:38:40.762Z,20.05
2022-12-08T10:41:10.738Z,18.85
2022-12-08T10:43:48.865Z,19.98
2022-12-08T10:46:26.826Z,20.08
2022-12-08T10:48:57.937Z,20.63
2022-12-08T10:51:30.137Z,18.45
2022-12-08T10:53:57.302Z,18.02
2022-12-08T10:56:33.003Z,17.42
2022-12-08T10:59:14.955Z,17.40
2022-12-08T11:01:45.293Z,18.35
2022-12-08T11:04:29.230Z,17.27
2022-12-08T11:06:56.146Z,16.98
2022-12-08T11:09:32.596Z,18.02
2022-12-08T11:12:14.500Z,16.83
2022-12-08T11:14:44.275Z,17.00
2022-12-08T11:17:23.370Z,17.20
2022-12-08T11:20:04.301Z,17.73
2022-12-08T11:22:41.151Z,14.95
2022-12-08T11:25:27.755Z,16.10
2022-12-08T11:27:58.996Z,16.35
2022-12-08T11:30:32.094Z,16.40
2022-12-08T11:33:23.754Z,17.73
2022-12-08T11:35:55.889Z,18.02
2022-12-08T11:38:25.027Z,17.17
2022-12-08T11:40:55.822Z,17.73
2022-12-08T11:43:31.979Z,18.35
2022-12-08T11:46:09.488Z,16.40
2022-12-08T11:48:39.516Z,18.05
2022-12-08T11:51:12.169Z,17.20
2022-12-08T11:53:46.806Z,16.88
2022-12-08T11:56:26.584Z,17.00
2022-12-08T11:59:09.658Z,18.15
2022-12-08T12:01:42.224Z,18.08
2022-12-08T12:04:21.396Z,16.92
2022-12-08T12:07:24.558Z,16.92
2022-12-08T12:10:20.640Z,18.30
2022-12-08T12:13:15.487Z,18.58
2022-12-08T12:15:54.184Z,16.95
2022-12-08T12:18:46.720Z,17.00
2022-12-08T12:21:26.522Z,18.13
2022-12-08T12:23:54.904Z,17.27
2022-12-08T12:26:28.354Z,18.05
2022-12-08T12:29:26.372Z,18.10
2022-12-08T12:32:00.631Z,17.90
2022-12-08T12:34:34.411Z,17.63
2022-12-08T12:37:04.142Z,17.55
2022-12-08T12:39:44.362Z,17.60
2022-12-08T12:42:34.105Z,17.63
2022-12-08T12:45:29.798Z,16.30
2022-12-08T12:47:57.170Z,17.00
2022-12-08T12:50:33.662Z,15.30
2022-12-08T12:53:19.147Z,16.45
2022-12-08T12:56:03.723Z,15.60
2022-12-08T12:58:30.614Z,17.58
2022-12-08T13:01:12.784Z,16.70
2022-12-08T13:04:03.370Z,17.52
2022-12-08T13:06:43.445Z,15.38
2022-12-08T13:09:37.552Z,16.23
2022-12-08T13:12:23.361Z,16.85
2022-12-08T13:14:51.815Z,15.57
2022-12-08T13:17:32.891Z,15.25
2022-12-08T13:20:02.777Z,15.35
2022-12-08T13:23:02.900Z,15.40
2022-12-08T13:26:11.280Z,14.30
2022-12-08T13:28:59.973Z,13.00
2022-12-08T13:31:50.622Z,13.50
2022-12-08T13:34:21.338Z,13.07
2022-12-08T13:37:06.620Z,13.23
2022-12-08T13:39:40.302Z,13.82
2022-12-08T13:42:13.065Z,13.48
2022-12-08T13:48:30.094Z,15.05
2022-12-08T13:57:18.741Z,15.63
2022-12-08T13:59:46.409Z,15.43
2022-12-08T14:02:17.644Z,15.52
2022-12-08T14:05:18.571Z,16.45
2022-12-08T14:07:36.529Z,15.70
2022-12-08T14:10:08.575Z,16.05
2022-12-08T14:12:35.911Z,15.20
2022-12-08T14:15:08.423Z,17.52
2022-12-08T14:17:35.499Z,16.67
2022-12-08T14:20:06.702Z,16.45
2022-12-08T14:22:35.545Z,17.10
2022-12-08T14:25:04.015Z,18.35
2022-12-08T14:27:35.251Z,17.55
2022-12-08T14:30:13.462Z,16.80
2022-12-08T14:32:50.841Z,16.42
2022-12-08T14:35:25.324Z,18.23
2022-12-08T14:37:55.962Z,17.48
2022-12-08T14:40:32.632Z,16.63
2022-12-08T14:43:12.407Z,16.70
2022-12-08T14:45:45.059Z,17.10
2022-12-08T14:48:28.205Z,17.50
2022-12-08T14:51:04.161Z,17.77
2022-12-08T14:53:37.985Z,16.42
2022-12-08T14:56:22.955Z,17.05
2022-12-08T14:59:09.554Z,15.05
2022-12-08T15:01:37.743Z,16.75
2022-12-08T15:04:12.870Z,16.73
2022-12-08T15:07:07.472Z,15.75
2022-12-08T15:09:46.261Z,15.65
2022-12-08T15:12:26.187Z,17.13
2022-12-08T15:15:01.240Z,16.55
2022-12-08T15:17:42.938Z,16.40
2022-12-08T15:20:48.837Z,15.25
2022-12-08T15:23:26.522Z,15.10
2022-12-08T15:25:54.728Z,17.20
2022-12-08T15:28:29.461Z,16.67
2022-12-08T15:30:58.320Z,17.08
2022-12-08T15:33:25.581Z,17.23
2022-12-08T15:35:53.550Z,16.85
2022-12-08T15:38:25.068Z,15.15
2022-12-08T15:40:53.262Z,16.25
2022-12-08T15:43:20.539Z,16.70
2022-12-08T15:45:57.867Z,15.73
2022-12-08T15:48:28.891Z,14.70
2022-12-08T15:50:56.496Z,16.20
2022-12-08T15:53:23.782Z,15.80
2022-12-08T15:56:25.690Z,15.98
2022-12-08T15:58:55.981Z,16.50
2022-12-08T16:01:23.773Z,16.58
2022-12-08T16:09:38.830Z,15.82
2022-12-08T16:12:25.827Z,15.30
2022-12-08T16:17:40.930Z,16.67
2022-12-08T16:20:15.588Z,17.02
2022-12-08T16:22:59.582Z,16.92
2022-12-08T16:25:52.769Z,16.63
2022-12-08T16:31:13.054Z,17.10
2022-12-08T16:33:41.285Z,18.95
2022-12-08T16:36:09.504Z,17.63
2022-12-08T16:38:37.441Z,17.75
2022-12-08T16:41:22.893Z,18.25
2022-12-08T16:43:51.178Z,17.88
2022-12-08T16:46:23.989Z,18.55
2022-12-08T16:48:50.818Z,18.10
2022-12-08T16:51:25.068Z,17.83
2022-12-08T16:53:54.916Z,17.50
2022-12-08T16:56:26.217Z,18.20
2022-12-08T16:58:57.300Z,17.38
2022-12-08T17:01:24.330Z,17.35
2022-12-08T17:04:14.411Z,17.95
2022-12-08T17:06:37.919Z,18.52
2022-12-08T17:09:04.734Z,18.52
2022-12-08T17:11:39.031Z,18.45
2022-12-08T17:14:09.211Z,17.75
2022-12-08T17:16:36.080Z,17.80
2022-12-08T17:19:02.973Z,19.17
2022-12-08T17:21:29.864Z,19.10
2022-12-08T17:23:56.728Z,18.60
2022-12-08T17:26:23.807Z,18.75
2022-12-08T17:29:00.394Z,20.77
2022-12-08T17:31:30.215Z,19.52
2022-12-08T17:34:00.333Z,19.98
2022-12-08T17:36:27.130Z,20.77
2022-12-08T17:38:54.264Z,20.25
2022-12-08T17:41:20.984Z,20.77
2022-12-08T17:43:47.748Z,20.55
2022-12-08T17:46:19.541Z,21.20
2022-12-08T17:48:46.439Z,22.45
2022-12-08T17:51:13.339Z,21.15
2022-12-08T17:53:40.900Z,22.20
2022-12-08T17:56:14.677Z,21.85
2022-12-08T17:58:41.480Z,21.45
2022-12-08T18:01:10.058Z,20.00
2022-12-08T18:03:37.623Z,21.75
2022-12-08T18:06:12.808Z,22.98
2022-12-08T18:08:40.401Z,19.90
2022-12-08T18:11:13.657Z,22.10
2022-12-08T18:16:07.699Z,23.30
2022-12-08T18:18:34.646Z,22.52
2022-12-08T18:21:03.027Z,22.73
2022-12-08T18:23:29.889Z,22.15
2022-12-08T18:25:56.621Z,20.67
2022-12-08T18:28:24.070Z,21.77
2022-12-08T18:30:50.909Z,22.70
2022-12-08T18:33:17.761Z,21.77
2022-12-08T18:35:44.568Z,22.13
2022-12-08T18:38:12.397Z,21.00
2022-12-08T18:40:39.401Z,21.40
2022-12-08T18:43:06.130Z,20.98
2022-12-08T18:45:33.923Z,22.67
2022-12-08T18:48:00.789Z,22.45
2022-12-08T18:50:28.548Z,23.58
2022-12-08T18:52:55.467Z,22.92
2022-12-08T18:55:22.244Z,24.20
2022-12-08T18:57:49.879Z,21.63
2022-12-08T19:00:19.598Z,21.27
2022-12-08T19:02:46.928Z,21.13
2022-12-08T19:05:14.644Z,24.30
2022-12-08T19:07:42.779Z,24.80
2022-12-08T19:10:11.747Z,22.30
2022-12-08T19:12:39.805Z,22.83
2022-12-08T19:15:07.160Z,20.95
2022-12-08T19:17:34.064Z,21.40
2022-12-08T19:20:01.029Z,20.63
2022-12-08T19:22:28.249Z,22.05
2022-12-08T19:24:54.987Z,20.95
2022-12-08T19:27:21.788Z,20.80
2022-12-08T19:29:51.088Z,22.77
2022-12-08T19:32:17.917Z,20.88
2022-12-08T19:34:44.742Z,21.23
2022-12-08T19:37:12.933Z,21.63
2022-12-08T19:39:58.537Z,20.55
2022-12-08T19:42:43.929Z,21.90
2022-12-08T19:45:12.365Z,20.92
2022-12-08T19:47:40.558Z,21.25
2022-12-08T19:50:28.018Z,22.38
2022-12-08T19:52:56.127Z,23.55
2022-12-08T19:55:23.920Z,23.48
2022-12-08T19:57:51.985Z,22.92
2022-12-08T20:00:20.505Z,23.05
2022-12-08T20:02:48.526Z,22.92
2022-12-08T20:05:16.159Z,22.85
2022-12-08T20:07:43.475Z,23.58
2022-12-08T20:10:18.388Z,23.08
2022-12-08T20:12:45.203Z,23.20
2022-12-08T20:15:12.244Z,23.38
2022-12-08T20:17:39.617Z,22.90
2022-12-08T20:20:09.719Z,22.10
2022-12-08T20:22:37.972Z,22.73
2022-12-08T20:25:05.194Z,22.75
2022-12-08T20:27:33.150Z,24.50
2022-12-08T20:30:00.007Z,23.10
2022-12-08T20:32:26.925Z,24.02
2022-12-08T20:34:53.902Z,23.08
2022-12-08T20:37:20.741Z,23.05
2022-12-08T20:39:47.590Z,23.27
2022-12-08T20:42:14.587Z,23.58
2022-12-08T20:44:44.594Z,24.17
2022-12-08T20:47:13.018Z,24.02
2022-12-08T20:49:40.656Z,24.05
2022-12-08T20:52:07.988Z,24.65
2022-12-08T20:54:35.176Z,23.30
2022-12-08T20:57:02.369Z,24.25
2022-12-08T20:59:29.551Z,22.85
2022-12-08T21:01:57.083Z,25.33
2022-12-08T21:04:24.185Z,25.00
2022-12-08T21:06:52.529Z,24.00
2022-12-08T21:09:19.778Z,23.90
2022-12-08T21:11:46.878Z,24.15
2022-12-08T21:14:14.060Z,24.15
2022-12-08T21:16:40.868Z,23.70
2022-12-08T21:19:08.411Z,23.23
2022-12-08T21:21:35.289Z,23.35
2022-12-08T21:24:03.796Z,23.17
2022-12-08T21:26:31.209Z,22.45
2022-12-08T21:28:59.056Z,23.10
2022-12-08T21:31:27.039Z,42.60
2022-12-08T21:33:55.258Z,21.98
2022-12-08T21:36:22.644Z,21.52
2022-12-08T21:38:50.027Z,21.02
2022-12-08T21:41:40.138Z,23.38
2022-12-08T21:44:14.079Z,23.67
2022-12-08T21:46:41.878Z,24.13
2022-12-08T21:49:08.706Z,24.63
2022-12-08T21:51:37.964Z,23.77
2022-12-08T21:54:05.469Z,23.20
2022-12-08T21:56:32.404Z,24.30
2022-12-08T21:58:59.288Z,24.70
2022-12-08T22:01:26.317Z,22.92
2022-12-08T22:03:53.744Z,24.10
2022-12-08T22:06:20.710Z,23.05
2022-12-08T22:08:47.707Z,22.38
2022-12-08T22:11:14.607Z,21.70
2022-12-08T22:13:42.028Z,22.25
2022-12-08T22:16:11.450Z,23.35
2022-12-08T22:18:38.660Z,23.65
2022-12-08T22:21:10.335Z,23.02
2022-12-08T22:23:37.665Z,24.02
2022-12-08T22:26:04.894Z,22.17
2022-12-08T22:28:37.403Z,23.27
2022-12-08T22:31:20.881Z,22.88
2022-12-08T22:36:24.549Z,21.70
2022-12-08T22:38:52.999Z,21.83
2022-12-08T22:41:21.197Z,22.75
2022-12-08T22:43:49.754Z,22.02
2022-12-08T22:46:19.462Z,22.25
2022-12-08T22:48:47.939Z,23.27
2022-12-08T22:51:15.439Z,22.75
2022-12-08T22:53:43.117Z,22.02
2022-12-08T22:56:11.793Z,22.52
2022-12-08T22:58:40.088Z,21.13
2022-12-08T23:01:07.241Z,21.75
2022-12-08T23:03:34.698Z,21.52
2022-12-08T23:06:02.260Z,20.50
2022-12-08T23:08:29.371Z,20.85
2022-12-08T23:10:56.457Z,21.25
2022-12-08T23:13:23.462Z,21.42
2022-12-08T23:15:53.019Z,22.05
2022-12-08T23:18:20.042Z,20.88
2022-12-08T23:20:47.765Z,21.23
2022-12-08T23:23:16.528Z,21.52
2022-12-08T23:25:43.823Z,22.20
2022-12-08T23:28:11.207Z,21.92
2022-12-08T23:30:40.350Z,21.95
2022-12-08T23:33:07.319Z,21.70
2022-12-08T23:35:34.978Z,21.70
2022-12-08T23:38:01.810Z,19.73
2022-12-08T23:40:28.832Z,21.73
2022-12-08T23:42:55.545Z,22.40
2022-12-08T23:45:22.334Z,21.48
2022-12-08T23:47:49.134Z,21.33
2022-12-08T23:50:16.068Z,22.02
2022-12-08T23:52:43.058Z,22.13
2022-12-08T23:55:11.182Z,22.05
2022-12-08T23:57:38.599Z,22.88
